Time;durP1;ratioP1;P1;durP2;ratioP2;P2;SDS_P1;SDS_P2;PMS_P1;PMS_P2;Temp;Humidity;BMP_temperature;BMP_pressure;BME280_temperature;BME280_humidity;BME280_pressure;Samples;Min_cycle;Max_cycle;Signal;HPM_P1;HPM_P2
2022/03/01 00:02:13;;;;;;;10.82;6.88;;;2.90;99.90;;;;;;4877693;29;20454;-79
2022/03/01 00:04:39;;;;;;;11.70;6.88;;;2.90;99.90;;;;;;4849762;29;20173;-79
2022/03/01 00:07:05;;;;;;;12.43;7.47;;;2.80;99.90;;;;;;4878121;29;20575;-78
2022/03/01 00:09:30;;;;;;;9.07;6.75;;;2.80;99.90;;;;;;4864382;29;20433;-79
2022/03/01 00:11:56;;;;;;;11.52;7.05;;;2.80;99.90;;;;;;4875998;29;20052;-78
2022/03/01 00:14:22;;;;;;;7.85;5.95;;;2.70;99.90;;;;;;4870528;29;20040;-79
2022/03/01 00:16:47;;;;;;;10.30;6.70;;;2.70;99.90;;;;;;4873526;29;20045;-79
2022/03/01 00:19:13;;;;;;;10.65;6.40;;;2.70;99.90;;;;;;4873110;29;20041;-79
2022/03/01 00:21:39;;;;;;;9.73;6.28;;;2.70;99.90;;;;;;4877280;29;20051;-80
2022/03/01 00:24:05;;;;;;;8.70;5.65;;;2.70;99.90;;;;;;4859344;29;20059;-79
2022/03/01 00:26:30;;;;;;;7.78;5.75;;;2.60;99.90;;;;;;4860584;29;20052;-79
2022/03/01 00:28:56;;;;;;;8.07;5.85;;;2.60;99.90;;;;;;4877978;29;20057;-78
2022/03/01 00:31:22;;;;;;;10.75;6.45;;;2.60;99.90;;;;;;4877375;29;20048;-80
2022/03/01 00:33:48;;;;;;;10.05;7.15;;;2.60;99.90;;;;;;4875525;29;20060;-80
2022/03/01 00:36:13;;;;;;;9.93;7.00;;;2.50;99.90;;;;;;4861577;29;20049;-80
2022/03/01 00:38:39;;;;;;;10.40;7.10;;;2.50;99.90;;;;;;4874790;29;20057;-80
2022/03/01 00:41:06;;;;;;;10.93;7.03;;;2.50;99.90;;;;;;4877114;29;20132;-80
2022/03/01 00:43:31;;;;;;;11.32;6.80;;;2.50;99.90;;;;;;4862724;29;20077;-79
2022/03/01 00:45:57;;;;;;;9.18;6.68;;;2.50;99.90;;;;;;4873028;29;20057;-80
2022/03/01 00:48:23;;;;;;;8.45;5.85;;;2.50;99.90;;;;;;4874422;29;20049;-80
2022/03/01 00:50:49;;;;;;;8.45;6.00;;;2.50;99.90;;;;;;4867026;29;20049;-79
2022/03/01 00:53:15;;;;;;;9.60;6.25;;;2.50;99.90;;;;;;4872559;29;20053;-79
2022/03/01 00:55:41;;;;;;;7.97;5.70;;;2.40;99.90;;;;;;4877217;29;20048;-79
2022/03/01 00:58:06;;;;;;;9.15;5.93;;;2.40;99.90;;;;;;4858781;29;20076;-79
2022/03/01 01:00:33;;;;;;;7.85;5.47;;;2.30;99.90;;;;;;4870827;29;20045;-79
2022/03/01 01:03:00;;;;;;;8.05;5.30;;;2.30;99.90;;;;;;4875731;29;20072;-79
2022/03/01 01:05:27;;;;;;;7.88;5.30;;;2.30;99.90;;;;;;4881476;29;20448;-79
2022/03/01 01:07:53;;;;;;;7.57;5.18;;;2.30;99.90;;;;;;4876981;29;20132;-74
2022/03/01 01:10:20;;;;;;;7.90;5.63;;;2.30;99.90;;;;;;4861412;29;20796;-78
2022/03/01 01:12:46;;;;;;;9.20;5.57;;;2.30;99.90;;;;;;4874294;29;20379;-79
2022/03/01 01:15:14;;;;;;;8.85;6.00;;;2.30;99.90;;;;;;4876427;29;20123;-79
2022/03/01 01:17:40;;;;;;;10.27;6.47;;;2.30;99.90;;;;;;4848844;29;20041;-79
2022/03/01 01:20:07;;;;;;;9.23;6.70;;;2.30;99.90;;;;;;4874510;29;20037;-79
2022/03/01 01:22:42;;;;;;;9.73;6.40;;;2.40;99.90;;;;;;4873993;29;20049;-79
2022/03/01 01:25:14;;;;;;;10.68;7.15;;;2.40;99.90;;;;;;4876938;29;20097;-78
2022/03/01 01:27:43;;;;;;;10.93;7.38;;;2.40;99.90;;;;;;4876475;29;20092;-78
2022/03/01 01:30:11;;;;;;;10.13;7.10;;;2.40;99.90;;;;;;4879202;29;20095;-78
2022/03/01 01:32:38;;;;;;;9.57;6.55;;;2.50;99.90;;;;;;4875886;29;20084;-79
2022/03/01 01:35:05;;;;;;;9.60;6.05;;;2.50;99.90;;;;;;4875250;29;20054;-79
2022/03/01 01:37:31;;;;;;;8.13;5.97;;;2.40;99.90;;;;;;4854942;29;20041;-80
2022/03/01 01:39:57;;;;;;;9.55;6.40;;;2.50;99.90;;;;;;4874269;29;20601;-80
2022/03/01 01:42:22;;;;;;;7.93;5.20;;;2.50;99.90;;;;;;4875878;29;20044;-79
2022/03/01 01:44:48;;;;;;;8.45;6.00;;;2.40;99.90;;;;;;4875118;29;20073;-78
2022/03/01 01:47:14;;;;;;;8.80;6.07;;;2.40;99.90;;;;;;4885309;29;20132;-78
2022/03/01 01:49:39;;;;;;;8.77;6.13;;;2.40;99.90;;;;;;4843030;29;20084;-79
2022/03/01 01:52:06;;;;;;;8.32;6.18;;;2.40;99.90;;;;;;4875822;29;20048;-79
2022/03/01 01:54:32;;;;;;;;;;;2.40;99.90;;;;;;4879763;29;20052;-79
2022/03/01 01:56:57;;;;;;;10.38;7.18;;;2.40;99.90;;;;;;4874935;29;19920;-79
2022/03/01 01:59:23;;;;;;;10.20;6.53;;;2.40;99.90;;;;;;4880056;29;20128;-78
2022/03/01 02:01:49;;;;;;;9.80;5.90;;;2.40;99.90;;;;;;4861393;29;20139;-79
2022/03/01 02:04:15;;;;;;;9.57;6.13;;;2.40;99.90;;;;;;4877139;29;20570;-79
2022/03/01 02:06:54;;;;;;;11.13;7.78;;;2.30;99.90;;;;;;4866998;29;20416;-79
2022/03/01 02:09:20;;;;;;;10.18;6.75;;;2.40;99.90;;;;;;4860487;29;20469;-77
2022/03/01 02:11:46;;;;;;;10.10;6.43;;;2.30;99.90;;;;;;4876370;29;20105;-79
2022/03/01 02:14:12;;;;;;;10.48;6.57;;;2.40;99.90;;;;;;4859514;29;20041;-78
2022/03/01 02:16:39;;;;;;;9.73;6.10;;;2.40;99.90;;;;;;4873890;29;20054;-79
2022/03/01 02:19:05;;;;;;;10.40;6.50;;;2.40;99.90;;;;;;4874068;29;20041;-79
2022/03/01 02:21:31;;;;;;;9.35;6.50;;;2.40;99.90;;;;;;4874336;29;20045;-80
2022/03/01 02:23:57;;;;;;;9.63;6.35;;;2.50;99.90;;;;;;4856031;29;20486;-78
2022/03/01 02:26:23;;;;;;;9.93;6.28;;;2.50;99.90;;;;;;4875479;29;20077;-79
2022/03/01 02:28:49;;;;;;;10.93;6.43;;;2.50;99.90;;;;;;4859813;29;20069;-79
2022/03/01 02:31:15;;;;;;;9.18;6.13;;;2.50;99.90;;;;;;4875409;29;20103;-79
2022/03/01 02:33:40;;;;;;;8.65;5.93;;;2.40;99.90;;;;;;4875068;29;20037;-80
2022/03/01 02:36:06;;;;;;;11.02;6.60;;;2.40;99.90;;;;;;4875535;29;20052;-79
2022/03/01 02:38:32;;;;;;;9.98;6.80;;;2.40;99.90;;;;;;4874094;29;20451;-79
2022/03/01 02:40:58;;;;;;;11.75;7.45;;;2.40;99.90;;;;;;4861086;29;20123;-79
2022/03/01 02:43:23;;;;;;;11.67;7.37;;;2.50;99.90;;;;;;4859502;29;20051;-79
2022/03/01 02:45:50;;;;;;;8.68;5.90;;;2.40;99.90;;;;;;4874056;29;20298;-78
2022/03/01 02:48:16;;;;;;;9.27;6.50;;;2.40;99.90;;;;;;4877901;29;20040;-78
2022/03/01 02:50:42;;;;;;;8.63;6.13;;;2.40;99.90;;;;;;4874467;29;20200;-78
2022/03/01 02:53:07;;;;;;;10.15;7.00;;;2.40;99.90;;;;;;4875295;29;20080;-79
2022/03/01 02:55:33;;;;;;;10.05;6.68;;;2.40;99.90;;;;;;4875172;29;20049;-79
2022/03/01 02:57:59;;;;;;;11.67;7.80;;;2.40;99.90;;;;;;4872555;29;20169;-79
2022/03/01 03:00:24;;;;;;;11.37;7.30;;;2.40;99.90;;;;;;4875289;29;20317;-78
2022/03/01 03:02:50;;;;;;;12.15;7.88;;;2.50;99.90;;;;;;4839190;29;20952;-79
2022/03/01 03:05:16;;;;;;;13.27;7.90;;;2.40;99.90;;;;;;4856390;29;20095;-79
2022/03/01 03:07:43;;;;;;;9.70;7.03;;;2.50;99.90;;;;;;4874386;29;20132;-79
2022/03/01 03:10:08;;;;;;;;;;;2.50;99.90;;;;;;4873210;29;20038;-79
2022/03/01 03:12:34;;;;;;;10.90;6.70;;;2.40;99.90;;;;;;4857746;29;20382;-80
2022/03/01 03:15:00;;;;;;;10.70;7.13;;;2.50;99.90;;;;;;4876856;29;20073;-80
2022/03/01 03:17:26;;;;;;;9.75;6.70;;;2.40;99.90;;;;;;4872910;29;20080;-79
2022/03/01 03:19:51;;;;;;;10.40;6.97;;;2.50;99.90;;;;;;4873031;29;20067;-79
2022/03/01 03:22:17;;;;;;;10.18;7.47;;;2.40;99.90;;;;;;4856999;29;20053;-79
2022/03/01 03:24:43;;;;;;;9.93;6.30;;;2.40;99.90;;;;;;4845434;29;20513;-79
2022/03/01 03:27:08;;;;;;;10.43;6.53;;;2.40;99.90;;;;;;4859959;29;20120;-79
2022/03/01 03:29:34;;;;;;;12.00;7.80;;;2.40;99.90;;;;;;4857242;29;20309;-79
2022/03/01 03:32:00;;;;;;;11.90;7.60;;;2.40;99.90;;;;;;4876275;29;20045;-79
2022/03/01 03:34:26;;;;;;;13.38;8.10;;;2.40;99.90;;;;;;4871308;29;20057;-79
2022/03/01 03:36:52;;;;;;;10.77;7.35;;;2.40;99.90;;;;;;4860143;29;20496;-79
2022/03/01 03:39:19;;;;;;;10.63;7.50;;;2.40;99.90;;;;;;4862653;29;20063;-79
2022/03/01 03:41:44;;;;;;;13.57;8.20;;;2.50;99.90;;;;;;4861225;29;20083;-80
2022/03/01 03:44:10;;;;;;;10.05;6.80;;;2.50;99.90;;;;;;4860973;29;20076;-80
2022/03/01 03:46:36;;;;;;;10.05;6.85;;;2.40;99.90;;;;;;4891545;29;20084;-79
2022/03/01 03:49:03;;;;;;;8.85;6.10;;;2.40;99.90;;;;;;4842160;29;20051;-79
2022/03/01 03:51:29;;;;;;;8.95;6.15;;;2.40;99.90;;;;;;4873068;29;20045;-79
2022/03/01 03:53:55;;;;;;;8.50;6.32;;;2.40;99.90;;;;;;4877025;29;20693;-80
2022/03/01 03:56:22;;;;;;;10.20;6.35;;;2.40;99.90;;;;;;4874092;29;20049;-79
2022/03/01 03:58:47;;;;;;;10.52;7.38;;;2.40;99.90;;;;;;4876024;29;20510;-79
2022/03/01 04:01:13;;;;;;;12.13;8.20;;;2.40;99.90;;;;;;4878205;29;20041;-80
2022/03/01 04:03:39;;;;;;;9.45;6.03;;;2.40;99.90;;;;;;4858186;29;20148;-79
2022/03/01 04:06:04;;;;;;;9.27;6.00;;;2.40;99.90;;;;;;4861373;29;20451;-79
2022/03/01 04:08:30;;;;;;;9.10;6.05;;;2.30;99.90;;;;;;4873632;29;20473;-79
2022/03/01 04:10:56;;;;;;;11.88;7.18;;;2.30;99.90;;;;;;4875507;29;20076;-79
2022/03/01 04:13:24;;;;;;;10.73;6.75;;;2.30;99.90;;;;;;4856707;29;20045;-80
2022/03/01 04:15:50;;;;;;;9.55;6.75;;;2.30;99.90;;;;;;4874584;29;20123;-79
2022/03/01 04:18:16;;;;;;;8.80;6.45;;;2.30;99.90;;;;;;4875412;29;20140;-79
2022/03/01 04:20:42;;;;;;;10.10;7.10;;;2.30;99.90;;;;;;4848502;29;20041;-79
2022/03/01 04:23:08;;;;;;;11.30;7.13;;;2.30;99.90;;;;;;4861393;29;20140;-79
2022/03/01 04:25:34;;;;;;;10.18;7.10;;;2.30;99.90;;;;;;4875849;29;20060;-79
2022/03/01 04:28:00;;;;;;;9.60;6.40;;;2.30;99.90;;;;;;4839754;29;1106223;-79
2022/03/01 04:30:27;;;;;;;12.82;8.18;;;2.30;99.90;;;;;;4857332;29;20195;-79
2022/03/01 04:32:53;;;;;;;12.68;7.57;;;2.40;99.90;;;;;;4881992;29;20131;-79
2022/03/01 04:35:19;;;;;;;12.73;8.60;;;2.40;99.90;;;;;;4882457;29;20045;-79
2022/03/01 04:37:46;;;;;;;12.10;8.48;;;2.40;99.90;;;;;;4883178;29;20055;-79
2022/03/01 04:40:13;;;;;;;13.77;7.30;;;2.40;99.90;;;;;;4861749;29;20143;-79
2022/03/01 04:42:39;;;;;;;9.85;6.72;;;2.40;99.90;;;;;;4859155;29;20038;-79
2022/03/01 04:45:08;;;;;;;10.85;7.75;;;2.40;99.90;;;;;;4879567;29;20045;-79
2022/03/01 04:47:34;;;;;;;11.68;7.60;;;2.40;99.90;;;;;;4858601;29;20101;-79
2022/03/01 04:50:00;;;;;;;11.63;8.18;;;2.40;99.90;;;;;;4871465;29;20045;-79
2022/03/01 04:52:25;;;;;;;12.23;8.10;;;2.40;99.90;;;;;;4863705;29;20211;-79
2022/03/01 04:54:51;;;;;;;11.18;7.72;;;2.40;99.90;;;;;;4862020;29;20144;-80
2022/03/01 04:57:17;;;;;;;12.52;8.07;;;2.40;99.90;;;;;;4861507;29;20048;-79
2022/03/01 04:59:44;;;;;;;11.13;7.78;;;2.40;99.90;;;;;;4874091;29;20044;-79
2022/03/01 05:02:09;;;;;;;11.65;7.85;;;2.50;99.90;;;;;;4880859;29;20044;-79
2022/03/01 05:04:35;;;;;;;11.97;8.03;;;2.40;99.90;;;;;;4862561;29;20040;-79
2022/03/01 05:07:01;;;;;;;12.40;8.40;;;2.40;99.90;;;;;;4877796;29;20622;-79
2022/03/01 05:09:27;;;;;;;12.35;8.68;;;2.50;99.90;;;;;;4874761;29;20073;-79
2022/03/01 05:11:52;;;;;;;11.73;8.02;;;2.50;99.90;;;;;;4874450;29;20049;-79
2022/03/01 05:14:19;;;;;;;12.55;7.05;;;2.50;99.90;;;;;;4877382;29;20515;-79
2022/03/01 05:16:45;;;;;;;;;;;2.50;99.90;;;;;;4877959;29;20087;-79
2022/03/01 05:19:12;;;;;;;10.00;7.47;;;2.50;99.90;;;;;;4875734;29;19924;-80
2022/03/01 05:21:38;;;;;;;11.45;7.82;;;2.50;99.90;;;;;;4876936;29;20049;-79
2022/03/01 05:24:04;;;;;;;10.98;7.47;;;2.50;99.90;;;;;;4885397;29;20037;-79
2022/03/01 05:26:30;;;;;;;13.32;8.57;;;2.50;99.90;;;;;;4862348;29;20041;-79
2022/03/01 05:28:56;;;;;;;12.07;7.77;;;2.50;99.90;;;;;;4877556;29;20584;-80
2022/03/01 05:31:22;;;;;;;11.32;7.95;;;2.50;99.90;;;;;;4864080;29;20649;-80
2022/03/01 05:33:48;;;;;;;15.77;8.57;;;2.50;99.90;;;;;;4861181;29;20390;-78
2022/03/01 05:36:14;;;;;;;11.90;7.85;;;2.60;99.90;;;;;;4876620;29;20048;-78
2022/03/01 05:38:41;;;;;;;14.20;8.23;;;2.60;99.90;;;;;;4879610;29;20044;-78
2022/03/01 05:41:08;;;;;;;10.38;7.45;;;2.60;99.90;;;;;;4876869;29;20124;-78
2022/03/01 05:43:34;;;;;;;13.40;8.15;;;2.60;99.90;;;;;;4842662;29;20056;-80
2022/03/01 05:46:00;;;;;;;11.90;7.82;;;2.60;99.90;;;;;;4859026;29;20066;-80
2022/03/01 05:48:26;;;;;;;12.23;7.75;;;2.60;99.90;;;;;;4875946;29;20049;-77
2022/03/01 05:50:53;;;;;;;12.63;7.93;;;2.60;99.90;;;;;;4877327;29;20352;-78
2022/03/01 05:53:19;;;;;;;10.55;7.00;;;2.60;99.90;;;;;;4859752;29;20054;-77
2022/03/01 05:55:44;;;;;;;8.95;6.32;;;2.60;99.90;;;;;;4861830;29;20132;-77
2022/03/01 05:58:10;;;;;;;12.02;7.20;;;2.60;99.90;;;;;;4868036;29;20071;-79
2022/03/01 06:00:36;;;;;;;9.25;6.25;;;2.60;99.90;;;;;;4862375;29;20041;-79
2022/03/01 06:03:02;;;;;;;10.95;6.93;;;2.50;99.90;;;;;;4861011;29;20105;-78
2022/03/01 06:05:29;;;;;;;11.45;6.88;;;2.60;99.90;;;;;;4876794;29;20084;-79
2022/03/01 06:07:56;;;;;;;;;;;2.60;99.90;;;;;;4861399;29;20133;-78
2022/03/01 06:10:22;;;;;;;9.48;6.13;;;2.60;99.90;;;;;;4881356;29;19931;-79
2022/03/01 06:12:48;;;;;;;10.68;5.85;;;2.50;99.90;;;;;;4838221;29;20413;-79
2022/03/01 06:15:14;;;;;;;8.52;5.68;;;2.60;99.90;;;;;;4871872;29;20089;-78
2022/03/01 06:17:40;;;;;;;8.52;5.70;;;2.60;99.90;;;;;;4875260;29;20053;-80
2022/03/01 06:20:08;;;;;;;8.65;6.00;;;2.60;99.90;;;;;;4870704;29;20105;-79
2022/03/01 06:22:34;;;;;;;10.68;6.95;;;2.50;99.90;;;;;;4871121;29;20055;-78
2022/03/01 06:25:00;;;;;;;10.00;6.68;;;2.60;99.90;;;;;;4862054;29;20040;-77
2022/03/01 06:27:26;;;;;;;10.93;6.60;;;2.60;99.90;;;;;;4856133;29;20037;-78
2022/03/01 06:29:52;;;;;;;10.85;7.10;;;2.60;99.90;;;;;;4860405;29;20116;-79
2022/03/01 06:32:17;;;;;;;10.70;7.05;;;2.60;99.90;;;;;;4859417;29;20049;-79
2022/03/01 06:34:44;;;;;;;11.02;6.95;;;2.60;99.90;;;;;;4858508;29;20101;-79
2022/03/01 06:37:13;;;;;;;8.02;5.68;;;2.60;99.90;;;;;;4863530;29;20385;-79
2022/03/01 06:39:44;;;;;;;10.70;6.95;;;2.60;99.90;;;;;;4858619;29;20120;-76
2022/03/01 06:42:11;;;;;;;10.95;7.07;;;2.60;99.90;;;;;;4864852;29;20048;-77
2022/03/01 06:44:37;;;;;;;9.23;6.57;;;2.60;99.90;;;;;;4852096;29;20089;-77
2022/03/01 06:47:04;;;;;;;9.98;7.32;;;2.60;99.90;;;;;;4860609;29;20048;-76
2022/03/01 06:49:30;;;;;;;10.23;6.75;;;2.60;99.90;;;;;;4858606;29;20037;-78
2022/03/01 06:51:56;;;;;;;13.18;7.75;;;2.70;99.90;;;;;;4856115;29;20101;-78
2022/03/01 06:54:22;;;;;;;12.13;7.85;;;2.70;99.90;;;;;;4855995;29;20052;-78
2022/03/01 06:56:48;;;;;;;11.10;7.85;;;2.70;99.90;;;;;;4856157;29;20119;-77
2022/03/01 06:59:15;;;;;;;12.73;8.15;;;2.80;99.90;;;;;;4839689;29;20120;-78
2022/03/01 07:01:40;;;;;;;11.93;7.50;;;2.80;99.90;;;;;;4854211;29;20450;-78
2022/03/01 07:04:06;;;;;;;13.23;8.70;;;2.90;99.90;;;;;;4854015;29;20124;-77
2022/03/01 07:06:32;;;;;;;11.07;7.55;;;3.00;99.90;;;;;;4853477;29;20041;-77
2022/03/01 07:08:58;;;;;;;12.00;7.57;;;3.00;99.90;;;;;;4855076;29;20052;-76
2022/03/01 07:11:23;;;;;;;8.65;6.53;;;3.00;99.90;;;;;;4855238;29;20140;-78
2022/03/01 07:13:49;;;;;;;10.73;7.05;;;3.20;99.90;;;;;;4845384;29;20045;-79
2022/03/01 07:16:15;;;;;;;10.80;7.70;;;3.20;99.90;;;;;;4826392;29;20401;-78
2022/03/01 07:18:42;;;;;;;13.05;6.68;;;3.30;99.90;;;;;;4856149;29;20041;-79
2022/03/01 07:21:08;;;;;;;12.13;7.55;;;3.30;99.90;;;;;;4840439;29;20048;-78
2022/03/01 07:23:33;;;;;;;11.93;7.80;;;3.40;99.90;;;;;;4824042;29;20053;-79
2022/03/01 07:26:00;;;;;;;11.93;8.57;;;3.50;99.90;;;;;;4859175;29;20041;-78
2022/03/01 07:28:27;;;;;;;11.95;8.73;;;3.50;99.90;;;;;;4876101;29;20065;-79
2022/03/01 07:30:53;;;;;;;;;;;3.60;99.90;;;;;;4877439;29;20060;-79
2022/03/01 07:33:19;;;;;;;12.20;7.93;;;3.60;99.90;;;;;;4859245;29;19927;-79
2022/03/01 07:35:45;;;;;;;14.32;8.30;;;3.70;99.90;;;;;;4875474;29;20053;-80
2022/03/01 07:38:11;;;;;;;12.23;8.50;;;3.70;99.90;;;;;;4874425;29;20500;-80
2022/03/01 07:40:37;;;;;;;12.77;8.82;;;3.80;99.90;;;;;;4859256;29;20056;-80
2022/03/01 07:43:04;;;;;;;11.73;8.18;;;3.80;99.90;;;;;;4843916;29;20068;-80
2022/03/01 07:45:30;;;;;;;12.70;9.50;;;3.80;99.90;;;;;;4844170;29;20169;-80
2022/03/01 07:47:57;;;;;;;13.60;9.50;;;3.80;99.90;;;;;;4859279;29;20166;-80
2022/03/01 07:50:23;;;;;;;13.02;9.48;;;3.80;99.90;;;;;;4876993;29;20053;-80
2022/03/01 07:52:49;;;;;;;15.43;9.55;;;3.80;99.90;;;;;;4875912;29;20116;-80
2022/03/01 07:55:15;;;;;;;12.38;9.30;;;3.80;99.90;;;;;;4874428;29;20389;-80
2022/03/01 07:57:41;;;;;;;13.30;9.07;;;3.90;99.90;;;;;;4843977;29;20041;-80
2022/03/01 08:00:09;;;;;;;13.32;8.98;;;3.90;99.90;;;;;;4874595;29;20033;-80
2022/03/01 08:02:36;;;;;;;12.43;9.05;;;3.90;99.90;;;;;;4866044;29;20045;-80
2022/03/01 08:05:04;;;;;;;14.43;9.27;;;3.90;99.90;;;;;;4828158;29;20041;-80
2022/03/01 08:07:30;;;;;;;16.75;9.48;;;4.00;99.90;;;;;;4871672;29;20053;-79
2022/03/01 08:09:55;;;;;;;14.00;9.60;;;4.00;99.90;;;;;;4856770;29;20041;-79
2022/03/01 08:12:21;;;;;;;13.15;9.48;;;4.00;99.90;;;;;;4871093;29;20143;-79
2022/03/01 08:14:47;;;;;;;13.32;8.60;;;4.10;99.90;;;;;;4887999;29;20054;-80
2022/03/01 08:17:12;;;;;;;11.40;7.63;;;4.10;99.90;;;;;;4874070;29;20048;-79
2022/03/01 08:19:38;;;;;;;11.23;8.02;;;4.10;99.90;;;;;;4858548;29;20341;-78
2022/03/01 08:22:04;;;;;;;13.60;8.52;;;4.20;99.90;;;;;;4862159;29;20057;-79
2022/03/01 08:24:29;;;;;;;15.75;9.95;;;4.20;99.90;;;;;;4877282;29;20068;-79
2022/03/01 08:26:55;;;;;;;15.73;9.93;;;4.20;99.90;;;;;;4877532;29;20047;-79
2022/03/01 08:29:21;;;;;;;13.98;9.35;;;4.20;99.90;;;;;;4877239;29;20108;-79
2022/03/01 08:31:47;;;;;;;13.38;8.55;;;4.20;99.90;;;;;;4860951;29;20070;-79
2022/03/01 08:34:13;;;;;;;14.85;9.50;;;4.30;99.90;;;;;;4875670;29;20152;-79
2022/03/01 08:36:39;;;;;;;12.20;9.00;;;4.30;99.90;;;;;;4876874;29;20125;-79
2022/03/01 08:39:05;;;;;;;13.90;8.90;;;4.40;99.90;;;;;;4861117;29;20481;-80
2022/03/01 08:41:31;;;;;;;11.75;8.73;;;4.40;99.90;;;;;;4861021;29;20191;-79
2022/03/01 08:43:57;;;;;;;13.15;9.55;;;4.50;99.90;;;;;;4882976;29;20537;-79
2022/03/01 08:46:26;;;;;;;14.05;9.57;;;4.60;99.90;;;;;;4864976;29;20048;-79
2022/03/01 08:48:53;;;;;;;14.05;10.27;;;4.70;99.90;;;;;;4874230;29;20037;-79
2022/03/01 08:51:23;;;;;;;12.32;9.30;;;4.80;99.90;;;;;;4874040;29;20045;-79
2022/03/01 08:53:50;;;;;;;13.52;9.55;;;4.80;99.90;;;;;;4865819;29;20045;-80
2022/03/01 08:56:16;;;;;;;14.20;10.00;;;4.90;99.90;;;;;;4879159;29;20069;-80
2022/03/01 08:58:42;;;;;;;;;;;5.00;99.90;;;;;;4859740;29;20068;-80
2022/03/01 09:01:08;;;;;;;14.75;10.90;;;5.10;99.90;;;;;;4875277;29;19934;-79
2022/03/01 09:03:34;;;;;;;13.82;9.80;;;5.20;99.90;;;;;;4877306;29;20044;-79
2022/03/01 09:05:59;;;;;;;15.57;9.63;;;5.20;99.90;;;;;;4875095;29;20085;-80
2022/03/01 09:08:25;;;;;;;13.80;10.35;;;5.40;99.90;;;;;;4879809;29;20111;-79
2022/03/01 09:10:51;;;;;;;14.18;10.50;;;5.40;99.90;;;;;;4860666;29;20053;-80
2022/03/01 09:13:17;;;;;;;15.80;11.10;;;5.60;99.90;;;;;;4878627;29;20120;-80
2022/03/01 09:15:43;;;;;;;14.85;10.80;;;5.60;99.90;;;;;;4859248;29;20055;-78
2022/03/01 09:18:09;;;;;;;14.05;10.27;;;5.70;99.90;;;;;;4860680;29;20049;-80
2022/03/01 09:20:34;;;;;;;14.35;10.15;;;5.80;99.90;;;;;;4861380;29;20053;-80
2022/03/01 09:23:02;;;;;;;13.35;10.10;;;5.90;99.90;;;;;;4860907;29;20057;-80
2022/03/01 09:25:28;;;;;;;15.15;10.70;;;6.00;99.90;;;;;;4874828;29;20049;-80
2022/03/01 09:27:53;;;;;;;19.50;10.15;;;5.90;99.90;;;;;;4880056;29;20128;-80
2022/03/01 09:30:20;;;;;;;14.45;9.95;;;5.90;99.90;;;;;;4856714;29;20120;-78
2022/03/01 09:32:46;;;;;;;13.25;9.32;;;6.00;99.90;;;;;;4841487;29;20171;-78
2022/03/01 09:35:12;;;;;;;13.77;10.05;;;6.00;99.90;;;;;;4845805;29;20465;-80
2022/03/01 09:37:38;;;;;;;12.77;9.07;;;6.10;99.90;;;;;;4861433;29;20513;-79
2022/03/01 09:40:06;;;;;;;15.90;10.50;;;6.10;99.90;;;;;;4862074;29;20047;-79
2022/03/01 09:42:32;;;;;;;14.27;10.15;;;6.10;99.90;;;;;;4846245;29;20072;-79
2022/03/01 09:45:00;;;;;;;15.60;11.07;;;6.10;99.90;;;;;;4861359;29;20049;-79
2022/03/01 09:47:26;;;;;;;15.77;10.50;;;6.00;99.90;;;;;;4859821;29;20068;-80
2022/03/01 09:49:52;;;;;;;14.38;10.68;;;6.00;99.90;;;;;;4864795;29;20335;-79
2022/03/01 09:52:20;;;;;;;13.75;10.07;;;6.00;99.90;;;;;;4845712;29;20132;-80
2022/03/01 09:54:49;;;;;;;12.80;9.57;;;6.10;99.90;;;;;;4854565;29;20060;-80
2022/03/01 09:57:18;;;;;;;12.98;9.35;;;6.20;99.90;;;;;;4858576;29;20049;-79
2022/03/01 09:59:44;;;;;;;12.98;9.50;;;6.30;99.90;;;;;;4861567;29;20045;-79
2022/03/01 10:02:10;;;;;;;16.13;11.35;;;6.40;99.90;;;;;;4845262;29;20045;-79
2022/03/01 10:04:53;;;;;;;14.57;10.30;;;6.40;99.90;;;;;;4844415;29;20041;-79
2022/03/01 10:07:30;;;;;;;14.18;10.50;;;6.50;99.90;;;;;;4858563;29;20040;-79
2022/03/01 10:10:16;;;;;;;16.67;11.73;;;6.60;99.90;;;;;;4843552;29;20432;-79
2022/03/01 10:12:43;;;;;;;15.40;11.43;;;6.70;99.90;;;;;;4845197;29;20132;-79
2022/03/01 10:15:11;;;;;;;15.50;11.63;;;6.80;99.90;;;;;;4842030;29;20446;-80
2022/03/01 10:17:37;;;;;;;14.93;11.13;;;6.90;99.90;;;;;;4859913;29;20048;-80
2022/03/01 10:20:05;;;;;;;14.73;10.73;;;7.00;99.90;;;;;;4843698;29;20815;-79
2022/03/01 10:22:31;;;;;;;13.15;10.50;;;7.30;99.90;;;;;;4859410;29;20057;-80
2022/03/01 10:25:04;;;;;;;13.73;9.73;;;7.60;99.90;;;;;;4839510;29;20053;-80
2022/03/01 10:27:30;;;;;;;15.80;11.02;;;7.70;99.90;;;;;;4860540;29;20797;-80
2022/03/01 10:29:56;;;;;;;;;;;7.70;98.40;;;;;;4874743;29;20573;-79
2022/03/01 10:32:22;;;;;;;13.65;10.48;;;7.70;98.10;;;;;;4858733;29;19935;-80
2022/03/01 10:35:06;;;;;;;15.02;9.48;;;7.80;98.60;;;;;;4875937;29;20094;-81
2022/03/01 10:37:37;;;;;;;14.43;10.70;;;7.90;99.90;;;;;;4874669;29;20041;-79
2022/03/01 10:40:20;;;;;;;13.95;10.38;;;7.80;98.80;;;;;;4875919;29;20595;-79
2022/03/01 10:42:59;;;;;;;18.15;11.65;;;7.70;98.90;;;;;;4868385;29;20041;-79
2022/03/01 10:45:33;;;;;;;14.52;10.85;;;7.70;99.80;;;;;;4871147;29;20029;-80
2022/03/01 10:47:59;;;;;;;13.18;10.13;;;7.80;99.90;;;;;;4853554;29;20056;-79
2022/03/01 10:50:25;;;;;;;14.23;10.70;;;8.00;99.60;;;;;;4874860;29;20045;-80
2022/03/01 10:52:51;;;;;;;14.20;10.60;;;7.90;98.60;;;;;;4844440;29;20052;-80
2022/03/01 10:55:24;;;;;;;12.98;9.65;;;8.00;98.30;;;;;;4871879;29;20401;-80
2022/03/01 10:58:16;;;;;;;16.73;10.63;;;8.00;99.00;;;;;;4876253;29;20045;-80
2022/03/01 11:00:42;;;;;;;14.63;10.43;;;8.10;99.90;;;;;;4870615;29;20124;-80
2022/03/01 11:03:08;;;;;;;15.73;11.05;;;8.00;99.30;;;;;;4826154;29;20041;-79
2022/03/01 11:05:35;;;;;;;14.55;10.70;;;7.90;97.70;;;;;;4881890;29;20044;-80
2022/03/01 11:08:05;;;;;;;;;;;7.90;98.40;;;;;;4876791;29;20128;-80
2022/03/01 11:10:35;;;;;;;13.13;9.85;;;7.90;98.80;;;;;;4875490;29;19919;-81
2022/03/01 11:13:01;;;;;;;13.88;10.15;;;8.00;97.70;;;;;;4862755;29;20060;-79
2022/03/01 11:15:53;;;;;;;12.73;9.48;;;7.90;97.60;;;;;;4873960;29;20092;-80
2022/03/01 11:18:31;;;;;;;12.43;9.23;;;8.00;97.90;;;;;;4873797;29;20525;-78
2022/03/01 11:20:58;;;;;;;11.88;8.98;;;8.00;97.70;;;;;;4858026;29;20045;-80
2022/03/01 11:23:26;;;;;;;15.85;10.70;;;8.10;98.40;;;;;;4875084;29;20041;-80
2022/03/01 11:25:53;;;;;;;16.35;10.88;;;8.20;98.70;;;;;;4873885;29;20045;-80
2022/03/01 11:28:28;;;;;;;;;;;8.20;97.60;;;;;;4873085;29;20145;-80
2022/03/01 11:30:54;;;;;;;12.60;9.68;;;8.30;97.70;;;;;;4870781;29;19924;-77
2022/03/01 11:33:29;;;;;;;13.68;10.70;;;8.30;97.30;;;;;;4888393;29;20112;-76
2022/03/01 11:35:57;;;;;;;14.60;10.20;;;8.30;97.30;;;;;;4872455;29;20045;-77
2022/03/01 11:38:28;;;;;;;14.57;9.88;;;8.20;97.00;;;;;;4857487;29;20046;-76
2022/03/01 11:41:06;;;;;;;14.13;9.88;;;8.20;97.00;;;;;;4872911;29;20129;-77
2022/03/01 11:43:37;;;;;;;12.73;9.48;;;8.20;96.80;;;;;;4844896;29;20041;-76
2022/03/01 11:46:17;;;;;;;14.60;10.35;;;8.30;97.10;;;;;;4870177;29;20056;-76
2022/03/01 11:48:51;;;;;;;14.45;10.23;;;8.30;96.70;;;;;;4869179;29;20053;-75
2022/03/01 11:51:17;;;;;;;15.52;11.48;;;8.30;95.80;;;;;;4873340;29;20148;-75
2022/03/01 11:53:49;;;;;;;12.38;10.48;;;8.20;96.60;;;;;;4874686;29;20477;-75
2022/03/01 11:56:18;;;;;;;13.30;10.00;;;8.10;95.80;;;;;;4857261;29;20041;-74
2022/03/01 11:58:49;;;;;;;15.00;10.48;;;8.00;95.10;;;;;;4860712;29;20049;-76
2022/03/01 12:01:15;;;;;;;12.98;9.93;;;8.00;96.60;;;;;;4874382;29;20052;-75
2022/03/01 12:03:42;;;;;;;13.50;9.25;;;8.00;96.90;;;;;;4875829;29;20131;-76
2022/03/01 12:06:08;;;;;;;12.20;9.23;;;7.90;97.50;;;;;;4878291;29;20030;-76
2022/03/01 12:08:38;;;;;;;16.50;11.10;;;7.90;97.60;;;;;;4876077;29;20691;-77
2022/03/01 12:11:09;;;;;;;11.93;9.30;;;7.90;97.30;;;;;;4867333;29;20674;-77
2022/03/01 12:13:35;;;;;;;15.32;10.68;;;7.80;97.30;;;;;;4874008;29;20045;-77
2022/03/01 12:16:01;;;;;;;12.70;8.75;;;7.80;98.30;;;;;;4875808;29;20060;-77
2022/03/01 12:18:33;;;;;;;13.35;9.38;;;7.80;97.60;;;;;;4860704;29;20047;-77
2022/03/01 12:21:19;;;;;;;12.93;9.82;;;7.80;98.40;;;;;;4862382;29;20041;-77
2022/03/01 12:23:46;;;;;;;12.32;8.85;;;7.80;97.40;;;;;;4855268;29;20385;-77
2022/03/01 12:26:15;;;;;;;11.82;8.50;;;7.80;98.20;;;;;;4867135;29;20041;-76
2022/03/01 12:28:45;;;;;;;15.68;9.52;;;7.90;99.40;;;;;;4877838;29;20069;-76
2022/03/01 12:31:20;;;;;;;12.00;9.07;;;8.00;99.40;;;;;;4874331;29;20052;-76
2022/03/01 12:33:51;;;;;;;11.07;8.45;;;8.10;98.70;;;;;;4862940;29;20136;-77
2022/03/01 12:36:32;;;;;;;11.73;8.07;;;8.10;97.50;;;;;;4878184;29;20445;-77
2022/03/01 12:39:03;;;;;;;13.02;9.38;;;8.10;97.60;;;;;;4861066;29;20045;-74
2022/03/01 12:41:29;;;;;;;13.55;10.65;;;8.10;97.30;;;;;;4874681;29;20049;-76
2022/03/01 12:43:57;;;;;;;13.85;10.70;;;8.20;98.10;;;;;;4871104;29;20041;-77
2022/03/01 12:46:25;;;;;;;12.75;9.57;;;8.10;97.70;;;;;;4877084;29;20116;-76
2022/03/01 12:48:51;;;;;;;14.77;10.40;;;8.20;97.70;;;;;;4882107;29;20109;-77
2022/03/01 12:51:17;;;;;;;13.45;9.65;;;8.30;98.50;;;;;;4876972;29;20224;-76